createdAt,value
2022-10-02T00:00:59.274Z,971.73
2022-10-02T00:01:59.335Z,971.75
2022-10-02T00:02:59.253Z,971.76
2022-10-02T00:03:59.294Z,971.81
2022-10-02T00:04:59.281Z,971.79
2022-10-02T00:05:59.236Z,971.83
2022-10-02T00:06:59.197Z,971.78
2022-10-02T00:07:59.177Z,971.83
2022-10-02T00:08:59.210Z,971.79
2022-10-02T00:09:59.197Z,971.82
2022-10-02T00:10:59.164Z,971.81
2022-10-02T00:11:59.150Z,971.84
2022-10-02T00:12:59.120Z,971.84
2022-10-02T00:13:59.120Z,971.80
2022-10-02T00:14:59.132Z,971.82
2022-10-02T00:15:59.137Z,971.87
2022-10-02T00:16:59.083Z,971.91
2022-10-02T00:17:59.082Z,971.82
2022-10-02T00:18:59.081Z,971.85
2022-10-02T00:19:59.091Z,971.81
2022-10-02T00:20:59.016Z,971.90
2022-10-02T00:21:59.067Z,971.88
2022-10-02T00:22:59.014Z,971.88
2022-10-02T00:23:58.996Z,971.91
2022-10-02T00:24:59.002Z,971.83
2022-10-02T00:25:59.017Z,971.91
2022-10-02T00:26:58.961Z,971.88
2022-10-02T00:27:59.005Z,971.89
2022-10-02T00:28:58.937Z,971.95
2022-10-02T00:29:58.905Z,971.95
2022-10-02T00:30:58.957Z,971.88
2022-10-02T00:31:58.960Z,971.90
2022-10-02T00:32:58.888Z,971.88
2022-10-02T00:33:58.876Z,971.89
2022-10-02T00:34:58.895Z,971.89
2022-10-02T00:35:58.921Z,971.93
2022-10-02T00:36:58.924Z,971.92
2022-10-02T00:37:58.859Z,971.95
2022-10-02T00:38:59.846Z,971.89
2022-10-02T00:39:58.834Z,971.88
2022-10-02T00:40:58.827Z,971.88
2022-10-02T00:41:58.894Z,971.89
2022-10-02T00:42:58.783Z,971.87
2022-10-02T00:43:58.790Z,971.84
2022-10-02T00:44:58.772Z,971.88
2022-10-02T00:45:58.821Z,971.90
2022-10-02T00:46:58.724Z,971.89
2022-10-02T00:47:58.752Z,971.88
2022-10-02T00:48:58.718Z,971.90
2022-10-02T00:49:58.679Z,971.90
2022-10-02T00:50:58.696Z,971.83
2022-10-02T00:51:58.707Z,971.91
2022-10-02T00:52:58.716Z,971.89
2022-10-02T00:53:58.652Z,971.90
2022-10-02T00:54:58.668Z,971.88
2022-10-02T00:55:59.648Z,971.96
2022-10-02T00:56:58.635Z,971.89
2022-10-02T00:57:58.609Z,971.89
2022-10-02T00:58:58.623Z,971.88
2022-10-02T00:59:58.608Z,971.92
2022-10-02T01:00:58.624Z,971.87
2022-10-02T01:01:58.593Z,971.91
2022-10-02T01:02:58.587Z,971.88
2022-10-02T01:03:58.578Z,971.92
2022-10-02T01:04:58.548Z,971.92
2022-10-02T01:05:58.538Z,971.90
2022-10-02T01:06:58.504Z,971.93
2022-10-02T01:07:58.503Z,971.91
2022-10-02T01:08:58.562Z,971.96
2022-10-02T01:09:58.468Z,971.91
2022-10-02T01:10:58.493Z,971.87
2022-10-02T01:11:58.475Z,971.93
2022-10-02T01:12:58.480Z,971.86
2022-10-02T01:13:58.467Z,971.93
2022-10-02T01:14:58.522Z,971.90
2022-10-02T01:15:58.436Z,971.84
2022-10-02T01:16:58.441Z,971.92
2022-10-02T01:17:58.378Z,971.91
2022-10-02T01:18:58.473Z,971.94
2022-10-02T01:19:58.430Z,971.89
2022-10-02T01:20:58.345Z,971.97
2022-10-02T01:21:58.357Z,971.99
2022-10-02T01:22:58.365Z,971.94
2022-10-02T01:23:58.335Z,972.00
2022-10-02T01:24:58.331Z,971.95
2022-10-02T01:25:58.362Z,971.99
2022-10-02T01:26:58.286Z,971.94
2022-10-02T01:27:58.310Z,971.98
2022-10-02T01:28:58.279Z,972.02
2022-10-02T01:29:58.283Z,972.03
2022-10-02T01:30:58.297Z,971.98
2022-10-02T01:31:58.273Z,972.02
2022-10-02T01:32:58.223Z,972.05
2022-10-02T01:33:58.227Z,972.09
2022-10-02T01:34:58.195Z,972.11
2022-10-02T01:35:58.209Z,972.15
2022-10-02T01:36:58.152Z,972.09
2022-10-02T01:37:58.189Z,972.08
2022-10-02T01:38:58.158Z,972.07
2022-10-02T01:39:58.151Z,972.09
2022-10-02T01:40:58.151Z,972.10
2022-10-02T01:41:58.114Z,972.07
2022-10-02T01:42:58.104Z,971.98
2022-10-02T01:43:58.106Z,971.99
2022-10-02T01:44:58.084Z,972.03
2022-10-02T01:45:58.148Z,972.09
2022-10-02T01:46:58.079Z,972.01
2022-10-02T01:47:58.050Z,972.11
2022-10-02T01:48:58.014Z,972.05
2022-10-02T01:49:58.064Z,972.05
2022-10-02T01:50:58.034Z,972.06
2022-10-02T01:51:58.237Z,972.01
2022-10-02T01:52:58.046Z,972.10
2022-10-02T01:53:58.035Z,972.10
2022-10-02T01:54:57.970Z,972.07
2022-10-02T01:55:57.943Z,972.16
2022-10-02T01:56:59.020Z,972.12
2022-10-02T01:57:57.980Z,972.16
2022-10-02T01:58:57.908Z,972.13
2022-10-02T01:59:57.899Z,972.14
2022-10-02T02:00:57.992Z,972.12
2022-10-02T02:01:57.951Z,972.15
2022-10-02T02:02:57.941Z,972.11
2022-10-02T02:03:57.851Z,972.06
2022-10-02T02:04:57.854Z,972.12
2022-10-02T02:05:57.849Z,972.08
2022-10-02T02:06:57.851Z,972.10
2022-10-02T02:07:57.853Z,972.14
2022-10-02T02:09:01.729Z,972.13
2022-10-02T02:09:57.821Z,972.16
2022-10-02T02:10:57.784Z,972.10
2022-10-02T02:11:57.769Z,972.10
2022-10-02T02:12:57.781Z,972.15
2022-10-02T02:13:57.775Z,972.06
2022-10-02T02:14:57.742Z,972.08
2022-10-02T02:15:57.733Z,972.13
2022-10-02T02:16:57.839Z,972.17
2022-10-02T02:17:57.768Z,972.15
2022-10-02T02:18:57.714Z,972.07
2022-10-02T02:19:57.689Z,972.13
2022-10-02T02:20:57.683Z,972.12
2022-10-02T02:21:57.744Z,972.12
2022-10-02T02:22:57.683Z,972.09
2022-10-02T02:23:57.678Z,972.10
2022-10-02T02:24:57.667Z,972.14
2022-10-02T02:25:57.623Z,972.14
2022-10-02T02:26:57.636Z,972.12
2022-10-02T02:27:57.737Z,972.12
2022-10-02T02:28:57.602Z,972.13
2022-10-02T02:29:57.603Z,972.17
2022-10-02T02:30:57.622Z,972.15
2022-10-02T02:31:57.674Z,972.10
2022-10-02T02:32:57.607Z,972.17
2022-10-02T02:33:57.522Z,972.16
2022-10-02T02:34:57.566Z,972.15
2022-10-02T02:35:57.520Z,972.19
2022-10-02T02:36:57.515Z,972.14
2022-10-02T02:37:57.529Z,972.15
2022-10-02T02:38:57.473Z,972.12
2022-10-02T02:39:57.482Z,972.13
2022-10-02T02:40:57.510Z,972.12
2022-10-02T02:41:57.466Z,972.15
2022-10-02T02:42:57.486Z,972.14
2022-10-02T02:43:57.434Z,972.08
2022-10-02T02:44:57.426Z,972.10
2022-10-02T02:45:57.425Z,972.11
2022-10-02T02:46:57.422Z,972.12
2022-10-02T02:47:57.413Z,972.15
2022-10-02T02:48:57.379Z,972.11
2022-10-02T02:49:57.363Z,972.08
2022-10-02T02:50:57.384Z,972.08
2022-10-02T02:51:57.381Z,972.04
2022-10-02T02:52:57.373Z,972.09
2022-10-02T02:53:57.335Z,972.05
2022-10-02T02:54:57.318Z,972.10
2022-10-02T02:55:57.305Z,972.11
2022-10-02T02:56:57.307Z,972.10
2022-10-02T02:57:57.347Z,972.04
2022-10-02T02:58:57.280Z,972.07
2022-10-02T02:59:57.263Z,972.07
2022-10-02T03:00:57.276Z,972.04
2022-10-02T03:01:57.305Z,972.09
2022-10-02T03:02:57.234Z,972.10
2022-10-02T03:03:57.220Z,972.12
2022-10-02T03:04:57.218Z,972.14
2022-10-02T03:05:57.180Z,972.09
2022-10-02T03:06:57.173Z,972.17
2022-10-02T03:07:57.245Z,972.17
2022-10-02T03:08:57.215Z,972.13
2022-10-02T03:09:57.127Z,972.05
2022-10-02T03:10:57.132Z,972.07
2022-10-02T03:11:57.118Z,972.11
2022-10-02T03:12:57.159Z,972.11
2022-10-02T03:13:57.084Z,972.17
2022-10-02T03:14:57.106Z,972.15
2022-10-02T03:15:57.135Z,972.18
2022-10-02T03:16:57.066Z,972.19
2022-10-02T03:17:57.029Z,972.17
2022-10-02T03:18:57.103Z,972.22
2022-10-02T03:19:57.067Z,972.10
2022-10-02T03:20:57.026Z,972.12
2022-10-02T03:21:56.989Z,972.17
2022-10-02T03:22:56.990Z,972.11
2022-10-02T03:23:57.110Z,972.18
2022-10-02T03:24:56.994Z,972.15
2022-10-02T03:25:56.955Z,972.14
2022-10-02T03:26:56.958Z,972.10
2022-10-02T03:27:56.967Z,972.14
2022-10-02T03:28:57.258Z,972.06
2022-10-02T03:29:56.946Z,972.09
2022-10-02T03:30:56.918Z,972.07
2022-10-02T03:31:56.924Z,972.04
2022-10-02T03:32:56.916Z,972.02
2022-10-02T03:33:56.898Z,972.07
2022-10-02T03:34:56.903Z,972.04
2022-10-02T03:35:56.847Z,972.01
2022-10-02T03:36:56.840Z,971.98
2022-10-02T03:37:56.875Z,972.02
2022-10-02T03:39:23.171Z,972.00
2022-10-02T03:39:57.835Z,972.07
2022-10-02T03:40:56.807Z,972.10
2022-10-02T03:41:56.765Z,972.13
2022-10-02T03:42:56.765Z,972.13
2022-10-02T03:43:56.785Z,972.17
2022-10-02T03:44:56.738Z,972.15
2022-10-02T03:45:56.767Z,972.17
2022-10-02T03:46:56.769Z,972.13
2022-10-02T03:47:56.685Z,972.13
2022-10-02T03:48:56.738Z,972.08
2022-10-02T03:49:56.671Z,972.15
2022-10-02T03:50:56.750Z,972.09
2022-10-02T03:51:56.670Z,972.13
2022-10-02T03:52:56.683Z,972.11
2022-10-02T03:53:56.660Z,972.07
2022-10-02T03:54:56.634Z,972.07
2022-10-02T03:55:57.685Z,972.08
2022-10-02T03:56:56.641Z,972.01
2022-10-02T03:57:56.631Z,972.06
2022-10-02T03:58:56.598Z,972.07
2022-10-02T03:59:56.552Z,972.04
2022-10-02T04:00:56.717Z,972.07
2022-10-02T04:01:56.632Z,972.09
2022-10-02T04:02:56.544Z,972.06
2022-10-02T04:03:56.527Z,972.16
2022-10-02T04:04:56.499Z,972.15
2022-10-02T04:05:56.501Z,972.16
2022-10-02T04:06:56.527Z,972.15
2022-10-02T04:07:56.478Z,972.21
2022-10-02T04:08:56.493Z,972.17
2022-10-02T04:09:56.471Z,972.19
2022-10-02T04:10:56.495Z,972.07
2022-10-02T04:11:56.497Z,972.07
2022-10-02T04:12:56.497Z,972.05
2022-10-02T04:13:56.409Z,972.06
2022-10-02T04:14:56.408Z,972.09
2022-10-02T04:15:56.568Z,972.08
2022-10-02T04:16:56.505Z,972.05
2022-10-02T04:17:59.019Z,972.05
2022-10-02T04:18:56.393Z,972.10
2022-10-02T04:19:56.386Z,972.13
2022-10-02T04:20:56.376Z,972.11
2022-10-02T04:21:57.056Z,972.10
2022-10-02T04:22:56.336Z,972.12
2022-10-02T04:23:56.382Z,972.11
2022-10-02T04:24:56.294Z,972.09
2022-10-02T04:25:56.308Z,972.13
2022-10-02T04:26:56.279Z,972.09
2022-10-02T04:27:56.339Z,972.17
2022-10-02T04:28:56.277Z,972.19
2022-10-02T04:29:56.225Z,972.20
2022-10-02T04:30:56.235Z,972.13
2022-10-02T04:31:56.341Z,972.17
2022-10-02T04:32:56.241Z,972.18
2022-10-02T04:33:56.219Z,972.16
2022-10-02T04:34:56.189Z,972.17
2022-10-02T04:35:57.182Z,972.24
2022-10-02T04:36:56.123Z,972.21
2022-10-02T04:37:56.222Z,972.15
2022-10-02T04:38:56.118Z,972.15
2022-10-02T04:39:56.138Z,972.22
2022-10-02T04:40:56.143Z,972.17
2022-10-02T04:41:56.093Z,972.12
2022-10-02T04:42:56.154Z,972.18
2022-10-02T04:43:56.073Z,972.14
2022-10-02T04:44:56.090Z,972.17
2022-10-02T04:45:56.079Z,972.10
2022-10-02T04:46:56.073Z,972.10
2022-10-02T04:47:56.056Z,972.16
2022-10-02T04:48:56.034Z,972.12
2022-10-02T04:49:56.037Z,972.12
2022-10-02T04:50:56.010Z,972.13
2022-10-02T04:51:55.987Z,972.15
2022-10-02T04:52:56.009Z,972.10
2022-10-02T04:53:56.026Z,972.14
2022-10-02T04:54:55.991Z,972.10
2022-10-02T04:55:55.951Z,972.17
2022-10-02T04:56:55.948Z,972.15
2022-10-02T04:57:55.932Z,972.20
2022-10-02T04:58:55.967Z,972.16
2022-10-02T04:59:55.883Z,972.23
2022-10-02T05:00:55.931Z,972.20
2022-10-02T05:01:55.912Z,972.19
2022-10-02T05:02:55.876Z,972.22
2022-10-02T05:03:55.849Z,972.23
2022-10-02T05:04:55.879Z,972.14
2022-10-02T05:05:55.849Z,972.17
2022-10-02T05:06:55.798Z,972.19
2022-10-02T05:07:55.835Z,972.21
2022-10-02T05:08:55.831Z,972.18
2022-10-02T05:09:55.776Z,972.18
2022-10-02T05:10:56.785Z,972.15
2022-10-02T05:11:55.750Z,972.11
2022-10-02T05:12:55.757Z,972.13
2022-10-02T05:13:55.759Z,972.04
2022-10-02T05:14:55.777Z,972.09
2022-10-02T05:15:55.725Z,972.13
2022-10-02T05:16:55.703Z,972.09
2022-10-02T05:17:55.705Z,972.06
2022-10-02T05:18:55.701Z,972.10
2022-10-02T05:19:55.706Z,972.06
2022-10-02T05:20:55.648Z,972.07
2022-10-02T05:21:55.645Z,972.07
2022-10-02T05:22:55.666Z,972.10
2022-10-02T05:23:55.625Z,972.10
2022-10-02T05:24:55.641Z,972.13
2022-10-02T05:25:55.648Z,972.18
2022-10-02T05:26:55.585Z,972.19
2022-10-02T05:27:55.594Z,972.17
2022-10-02T05:28:55.595Z,972.26
2022-10-02T05:29:55.563Z,972.26
2022-10-02T05:30:55.603Z,972.17
2022-10-02T05:31:55.521Z,972.14
2022-10-02T05:32:55.521Z,972.12
2022-10-02T05:33:55.527Z,972.11
2022-10-02T05:34:55.488Z,972.14
2022-10-02T05:35:55.493Z,972.10
2022-10-02T05:36:55.562Z,972.20
2022-10-02T05:37:55.507Z,972.19
2022-10-02T05:38:55.469Z,972.20
2022-10-02T05:39:55.423Z,972.17
2022-10-02T05:40:55.644Z,972.16
2022-10-02T05:41:55.946Z,972.18
2022-10-02T05:42:56.050Z,972.18
2022-10-02T05:43:55.390Z,972.25
2022-10-02T05:44:55.470Z,972.21
2022-10-02T05:45:55.411Z,972.18
2022-10-02T05:46:55.491Z,972.14
2022-10-02T05:47:55.544Z,972.27
2022-10-02T05:48:55.348Z,972.27
2022-10-02T05:49:55.332Z,972.25
2022-10-02T05:50:55.307Z,972.26
2022-10-02T05:51:55.330Z,972.30
2022-10-02T05:52:55.406Z,972.33
2022-10-02T05:53:55.266Z,972.32
2022-10-02T05:54:55.249Z,972.34
2022-10-02T05:55:55.250Z,972.28
2022-10-02T05:56:55.361Z,972.29
2022-10-02T05:57:55.271Z,972.34
2022-10-02T05:58:55.212Z,972.30
2022-10-02T05:59:55.271Z,972.33
2022-10-02T06:00:55.251Z,972.30
2022-10-02T06:01:55.361Z,972.31
2022-10-02T06:02:55.172Z,972.30
2022-10-02T06:03:55.150Z,972.25
2022-10-02T06:04:55.163Z,972.31
2022-10-02T06:05:55.127Z,972.30
2022-10-02T06:06:55.120Z,972.32
2022-10-02T06:07:55.190Z,972.32
2022-10-02T06:08:55.120Z,972.36
2022-10-02T06:09:55.107Z,972.38
2022-10-02T06:10:55.094Z,972.38
2022-10-02T06:11:55.056Z,972.40
2022-10-02T06:12:55.139Z,972.40
2022-10-02T06:13:55.042Z,972.40
2022-10-02T06:14:55.052Z,972.43
2022-10-02T06:15:55.062Z,972.48
2022-10-02T06:16:55.038Z,972.43
2022-10-02T06:17:55.024Z,972.38
2022-10-02T06:18:54.980Z,972.45
2022-10-02T06:19:54.978Z,972.40
2022-10-02T06:20:54.954Z,972.37
2022-10-02T06:21:54.957Z,972.36
2022-10-02T06:22:54.946Z,972.39
2022-10-02T06:23:54.964Z,972.37
2022-10-02T06:24:54.901Z,972.43
2022-10-02T06:25:54.903Z,972.34
2022-10-02T06:26:54.932Z,972.32
2022-10-02T06:27:54.897Z,972.36
2022-10-02T06:28:54.896Z,972.36
2022-10-02T06:29:54.894Z,972.42
2022-10-02T06:30:54.873Z,972.32
2022-10-02T06:31:55.876Z,972.34
2022-10-02T06:32:54.836Z,972.28
2022-10-02T06:33:54.821Z,972.30
2022-10-02T06:34:54.786Z,972.28
2022-10-02T06:35:54.832Z,972.25
2022-10-02T06:36:54.810Z,972.26
2022-10-02T06:37:54.785Z,972.27
2022-10-02T06:38:54.757Z,972.29
2022-10-02T06:39:54.773Z,972.25
2022-10-02T06:40:54.730Z,972.27
2022-10-02T06:41:54.729Z,972.30
2022-10-02T06:42:54.740Z,972.29
2022-10-02T06:43:54.689Z,972.28
2022-10-02T06:44:54.714Z,972.29
2022-10-02T06:45:54.704Z,972.22
2022-10-02T06:46:54.656Z,972.33
2022-10-02T06:47:54.694Z,972.31
2022-10-02T06:48:54.624Z,972.33
2022-10-02T06:49:54.599Z,972.36
2022-10-02T06:50:54.639Z,972.35
2022-10-02T06:51:54.602Z,972.39
2022-10-02T06:52:54.590Z,972.40
2022-10-02T06:53:54.604Z,972.33
2022-10-02T06:54:54.848Z,972.33
2022-10-02T06:55:54.580Z,972.28
2022-10-02T06:56:54.537Z,972.35
2022-10-02T06:57:54.553Z,972.31
2022-10-02T06:58:54.551Z,972.36
2022-10-02T06:59:54.490Z,972.39
2022-10-02T07:00:54.643Z,972.42
2022-10-02T07:01:57.330Z,972.41
2022-10-02T07:02:54.515Z,972.41
2022-10-02T07:03:54.444Z,972.47
2022-10-02T07:04:54.457Z,972.41
2022-10-02T07:05:54.472Z,972.49
2022-10-02T07:06:54.483Z,972.49
2022-10-02T07:07:54.391Z,972.43
2022-10-02T07:08:54.403Z,972.52
2022-10-02T07:09:54.397Z,972.52
2022-10-02T07:10:54.361Z,972.50
2022-10-02T07:11:54.516Z,972.52
2022-10-02T07:12:54.432Z,972.46
2022-10-02T07:13:54.396Z,972.51
2022-10-02T07:14:54.340Z,972.50
2022-10-02T07:15:54.353Z,972.49
2022-10-02T07:16:54.343Z,972.50
2022-10-02T07:17:54.316Z,972.47
2022-10-02T07:18:54.311Z,972.39
2022-10-02T07:19:54.266Z,972.41
2022-10-02T07:20:54.267Z,972.43
2022-10-02T07:21:55.257Z,972.46
2022-10-02T07:22:54.253Z,972.45
2022-10-02T07:23:55.918Z,972.41
2022-10-02T07:24:54.238Z,972.44
2022-10-02T07:25:54.236Z,972.42
2022-10-02T07:26:54.215Z,972.51
2022-10-02T07:27:54.239Z,972.48
2022-10-02T07:28:54.198Z,972.54
2022-10-02T07:29:54.148Z,972.55
2022-10-02T07:30:54.156Z,972.60
2022-10-02T07:31:54.180Z,972.54
2022-10-02T07:32:54.176Z,972.53
2022-10-02T07:33:54.119Z,972.52
2022-10-02T07:34:54.091Z,972.50
2022-10-02T07:35:54.082Z,972.56
2022-10-02T07:36:54.072Z,972.58
2022-10-02T07:37:54.073Z,972.64
2022-10-02T07:38:54.122Z,972.57
2022-10-02T07:39:54.043Z,972.56
2022-10-02T07:40:58.059Z,972.53
2022-10-02T07:41:54.004Z,972.49
2022-10-02T07:42:54.018Z,972.44
2022-10-02T07:43:54.042Z,972.48
2022-10-02T07:44:53.989Z,972.54
2022-10-02T07:45:54.072Z,972.47
2022-10-02T07:46:53.954Z,972.43
2022-10-02T07:47:53.947Z,972.44
2022-10-02T07:48:53.963Z,972.41
2022-10-02T07:49:53.959Z,972.41
2022-10-02T07:50:53.912Z,972.48
2022-10-02T07:51:53.899Z,972.53
2022-10-02T07:52:53.890Z,972.59
2022-10-02T07:53:53.860Z,972.56
2022-10-02T07:54:53.883Z,972.55
2022-10-02T07:55:53.870Z,972.62
2022-10-02T07:56:53.845Z,972.58
2022-10-02T07:57:53.922Z,972.62
2022-10-02T07:58:53.836Z,972.55
2022-10-02T07:59:53.806Z,972.62
2022-10-02T08:00:53.857Z,972.56
2022-10-02T08:01:53.782Z,972.55
2022-10-02T08:02:53.795Z,972.54
2022-10-02T08:03:53.771Z,972.55
2022-10-02T08:04:53.755Z,972.55
2022-10-02T08:05:54.092Z,972.59
2022-10-02T08:06:53.738Z,972.61
2022-10-02T08:07:53.724Z,972.64
2022-10-02T08:08:53.709Z,972.71
2022-10-02T08:09:53.663Z,972.71
2022-10-02T08:10:53.709Z,972.71
2022-10-02T08:11:53.691Z,972.68
2022-10-02T08:12:53.649Z,972.70
2022-10-02T08:13:53.668Z,972.72
2022-10-02T08:14:53.636Z,972.76
2022-10-02T08:15:53.688Z,972.72
2022-10-02T08:16:53.715Z,972.75
2022-10-02T08:17:53.617Z,972.72
2022-10-02T08:18:53.572Z,972.76
2022-10-02T08:19:53.617Z,972.78
2022-10-02T08:20:53.640Z,972.74
2022-10-02T08:21:53.592Z,972.81
2022-10-02T08:22:53.538Z,972.76
2022-10-02T08:23:53.666Z,972.73
2022-10-02T08:24:53.498Z,972.76
2022-10-02T08:25:53.520Z,972.74
2022-10-02T08:26:53.534Z,972.81
2022-10-02T08:27:53.570Z,972.79
2022-10-02T08:28:53.550Z,972.81
2022-10-02T08:29:53.479Z,972.79
2022-10-02T08:30:53.451Z,972.86
2022-10-02T08:31:53.535Z,972.91
2022-10-02T08:32:53.495Z,972.83
2022-10-02T08:33:53.419Z,972.88
2022-10-02T08:34:53.427Z,972.88
2022-10-02T08:35:53.397Z,972.84
2022-10-02T08:36:53.381Z,972.87
2022-10-02T08:37:53.395Z,972.88
2022-10-02T08:38:54.882Z,972.87
2022-10-02T08:39:53.365Z,972.91
2022-10-02T08:40:53.330Z,972.89
2022-10-02T08:41:53.373Z,972.89
2022-10-02T08:42:53.343Z,972.97
2022-10-02T08:43:53.316Z,972.90
2022-10-02T08:44:53.259Z,972.92
2022-10-02T08:45:53.384Z,972.92
2022-10-02T08:46:53.243Z,972.90
2022-10-02T08:47:53.292Z,972.92
2022-10-02T08:48:53.308Z,972.95
2022-10-02T08:49:53.250Z,972.91
2022-10-02T08:50:53.212Z,972.90
2022-10-02T08:51:53.208Z,972.94
2022-10-02T08:52:53.209Z,972.93
2022-10-02T08:53:53.348Z,972.87
2022-10-02T08:54:53.218Z,972.86
2022-10-02T08:55:53.148Z,972.90
2022-10-02T08:56:53.154Z,972.90
2022-10-02T08:57:53.130Z,972.89
2022-10-02T08:58:53.198Z,972.87
2022-10-02T08:59:53.130Z,972.84
2022-10-02T09:00:53.179Z,972.83
2022-10-02T09:01:57.542Z,972.81
2022-10-02T09:02:53.053Z,972.83
2022-10-02T09:03:53.067Z,972.83
2022-10-02T09:04:53.060Z,972.85
2022-10-02T09:05:53.034Z,972.84
2022-10-02T09:06:53.020Z,972.86
2022-10-02T09:07:53.020Z,972.77
2022-10-02T09:08:53.084Z,972.79
2022-10-02T09:09:53.067Z,972.81
2022-10-02T09:10:52.981Z,972.77
2022-10-02T09:11:52.993Z,972.81
2022-10-02T09:12:52.981Z,972.80
2022-10-02T09:13:53.128Z,972.81
2022-10-02T09:14:58.039Z,972.79
2022-10-02T09:15:52.962Z,972.82
2022-10-02T09:16:53.050Z,972.79
2022-10-02T09:17:52.946Z,972.79
2022-10-02T09:18:52.903Z,972.82
2022-10-02T09:19:52.975Z,972.82
2022-10-02T09:20:53.080Z,972.73
2022-10-02T09:21:53.021Z,972.84
2022-10-02T09:22:52.898Z,972.84
2022-10-02T09:23:52.936Z,972.87
2022-10-02T09:24:52.894Z,972.87
2022-10-02T09:25:52.938Z,972.85
2022-10-02T09:26:52.853Z,972.88
2022-10-02T09:27:52.940Z,972.81
2022-10-02T09:28:52.893Z,972.87
2022-10-02T09:29:52.798Z,972.82
2022-10-02T09:30:52.815Z,972.80
2022-10-02T09:31:52.917Z,972.84
2022-10-02T09:32:52.799Z,972.81
2022-10-02T09:33:52.774Z,972.86
2022-10-02T09:34:52.817Z,972.89
2022-10-02T09:35:52.754Z,972.84
2022-10-02T09:36:52.785Z,972.89
2022-10-02T09:37:52.744Z,972.82
2022-10-02T09:38:52.738Z,972.87
2022-10-02T09:39:52.734Z,972.87
2022-10-02T09:40:52.733Z,972.85
2022-10-02T09:41:52.788Z,972.89
2022-10-02T09:42:52.711Z,972.84
2022-10-02T09:43:52.672Z,972.86
2022-10-02T09:44:52.640Z,972.88
2022-10-02T09:45:52.806Z,972.91
2022-10-02T09:46:52.706Z,972.85
2022-10-02T09:47:52.683Z,972.86
2022-10-02T09:48:52.675Z,972.86
2022-10-02T09:49:52.594Z,972.90
2022-10-02T09:50:52.603Z,972.90
2022-10-02T09:51:52.636Z,972.90
2022-10-02T09:52:52.601Z,972.91
2022-10-02T09:53:52.621Z,972.84
2022-10-02T09:54:52.540Z,972.91
2022-10-02T09:55:52.540Z,972.88
2022-10-02T09:56:52.544Z,972.90
2022-10-02T09:57:52.530Z,972.92
2022-10-02T09:58:52.493Z,972.97
2022-10-02T09:59:52.516Z,972.98
2022-10-02T10:00:52.577Z,972.97
2022-10-02T10:01:52.494Z,973.01
2022-10-02T10:02:52.509Z,972.97
2022-10-02T10:03:52.439Z,973.05
2022-10-02T10:05:05.579Z,972.98
2022-10-02T10:05:54.455Z,973.03
2022-10-02T10:06:52.401Z,972.95
2022-10-02T10:07:52.387Z,973.00
2022-10-02T10:08:52.387Z,972.99
2022-10-02T10:09:52.356Z,973.02
2022-10-02T10:10:52.355Z,973.02
2022-10-02T10:11:52.320Z,972.97
2022-10-02T10:12:52.314Z,973.00
2022-10-02T10:13:52.339Z,972.97
2022-10-02T10:14:52.301Z,972.97
2022-10-02T10:15:52.310Z,972.97
2022-10-02T10:16:52.273Z,972.99
2022-10-02T10:17:52.262Z,972.99
2022-10-02T10:18:52.279Z,972.91
2022-10-02T10:19:52.240Z,972.93
2022-10-02T10:20:52.256Z,972.93
2022-10-02T10:21:52.228Z,973.01
2022-10-02T10:22:52.197Z,972.97
2022-10-02T10:23:52.253Z,972.98
2022-10-02T10:24:52.208Z,972.92
2022-10-02T10:26:27.494Z,972.99
2022-10-02T10:26:52.334Z,972.90
2022-10-02T10:27:52.431Z,972.99
2022-10-02T10:28:52.174Z,972.97
2022-10-02T10:29:52.269Z,972.96
2022-10-02T10:30:52.097Z,972.92
2022-10-02T10:31:52.094Z,973.03
2022-10-02T10:32:52.092Z,973.08
2022-10-02T10:33:52.061Z,972.98
2022-10-02T10:34:52.082Z,972.94
2022-10-02T10:35:52.040Z,972.95
2022-10-02T10:36:52.040Z,972.99
2022-10-02T10:37:52.022Z,973.02
2022-10-02T10:38:53.016Z,972.99
2022-10-02T10:39:52.041Z,972.94
2022-10-02T10:40:51.992Z,972.93
2022-10-02T10:41:51.969Z,973.01
2022-10-02T10:43:07.144Z,972.97
2022-10-02T10:43:52.958Z,972.97
2022-10-02T10:44:51.967Z,973.01
2022-10-02T10:45:51.965Z,973.05
2022-10-02T10:46:51.922Z,973.04
2022-10-02T10:47:51.909Z,973.03
2022-10-02T10:48:51.928Z,972.97
2022-10-02T10:49:51.903Z,973.04
2022-10-02T10:50:51.932Z,973.07
2022-10-02T10:51:51.884Z,973.02
2022-10-02T10:52:51.872Z,973.08
2022-10-02T10:53:51.851Z,973.07
2022-10-02T10:54:51.848Z,973.07
2022-10-02T10:55:51.866Z,973.11
2022-10-02T10:56:51.812Z,973.12
2022-10-02T10:57:51.818Z,973.10
2022-10-02T10:59:27.543Z,973.13
2022-10-02T10:59:52.201Z,973.12
2022-10-02T11:00:52.143Z,973.12
2022-10-02T11:01:51.902Z,973.17
2022-10-02T11:02:51.813Z,973.10
2022-10-02T11:04:05.868Z,973.07
2022-10-02T11:04:51.870Z,973.14
2022-10-02T11:05:51.980Z,973.12
2022-10-02T11:06:51.745Z,973.15
2022-10-02T11:07:51.708Z,973.19
2022-10-02T11:08:51.695Z,973.19
2022-10-02T11:09:51.676Z,973.12
2022-10-02T11:10:51.684Z,973.17
2022-10-02T11:11:51.709Z,973.15
2022-10-02T11:12:51.649Z,973.17
2022-10-02T11:13:52.632Z,973.14
2022-10-02T11:14:51.644Z,973.12
2022-10-02T11:15:51.625Z,973.11
2022-10-02T11:16:51.712Z,973.08
2022-10-02T11:17:51.688Z,973.07
2022-10-02T11:18:51.592Z,973.06
2022-10-02T11:19:51.701Z,973.02
2022-10-02T11:20:51.588Z,973.11
2022-10-02T11:21:51.567Z,973.02
2022-10-02T11:22:51.576Z,973.07
2022-10-02T11:23:51.532Z,973.10
2022-10-02T11:24:51.523Z,973.07
2022-10-02T11:25:51.646Z,973.04
2022-10-02T11:26:51.521Z,973.02
2022-10-02T11:27:51.520Z,972.99
2022-10-02T11:28:51.479Z,973.10
2022-10-02T11:29:51.494Z,973.09
2022-10-02T11:30:51.493Z,973.04
2022-10-02T11:31:51.490Z,973.12
2022-10-02T11:32:51.444Z,973.14
2022-10-02T11:33:51.423Z,973.20
2022-10-02T11:34:51.419Z,973.18
2022-10-02T11:35:51.452Z,973.13
2022-10-02T11:36:51.475Z,973.15
2022-10-02T11:37:51.389Z,973.17
2022-10-02T11:38:52.382Z,973.04
2022-10-02T11:39:51.389Z,973.08
2022-10-02T11:40:51.407Z,973.22
2022-10-02T11:41:51.365Z,973.22
2022-10-02T11:42:51.358Z,973.17
2022-10-02T11:43:51.318Z,973.20
2022-10-02T11:44:51.323Z,973.18
2022-10-02T11:45:51.366Z,973.14
2022-10-02T11:46:51.307Z,973.19
2022-10-02T11:47:51.286Z,973.14
2022-10-02T11:48:51.287Z,973.13
2022-10-02T11:49:51.324Z,973.10
2022-10-02T11:50:51.283Z,973.12
2022-10-02T11:51:51.280Z,973.14
2022-10-02T11:52:51.236Z,973.15
2022-10-02T11:53:51.234Z,973.16
2022-10-02T11:54:51.218Z,973.11
2022-10-02T11:55:51.207Z,973.06
2022-10-02T11:56:51.208Z,973.04
2022-10-02T11:57:51.204Z,973.09
2022-10-02T11:58:51.168Z,973.10
2022-10-02T11:59:51.159Z,973.07
2022-10-02T12:00:51.152Z,973.06
2022-10-02T12:01:51.182Z,973.05
2022-10-02T12:02:51.214Z,973.12
2022-10-02T12:03:51.119Z,973.13
2022-10-02T12:04:51.084Z,973.17
2022-10-02T12:05:51.082Z,973.06
2022-10-02T12:06:51.109Z,973.05
2022-10-02T12:07:51.060Z,973.02
2022-10-02T12:08:51.053Z,973.10
2022-10-02T12:09:51.050Z,973.14
2022-10-02T12:10:51.040Z,973.11
2022-10-02T12:11:51.040Z,973.11
2022-10-02T12:12:51.016Z,973.08
2022-10-02T12:13:51.010Z,973.10
2022-10-02T12:14:50.997Z,973.10
2022-10-02T12:15:50.995Z,973.07
2022-10-02T12:16:51.037Z,973.05
2022-10-02T12:17:50.957Z,973.07
2022-10-02T12:18:50.962Z,973.15
2022-10-02T12:19:50.930Z,973.11
2022-10-02T12:20:50.931Z,973.18
2022-10-02T12:21:50.970Z,973.18
2022-10-02T12:23:26.260Z,973.16
2022-10-02T12:23:51.043Z,973.23
2022-10-02T12:24:54.749Z,973.23
2022-10-02T12:25:50.891Z,973.15
2022-10-02T12:26:50.876Z,973.18
2022-10-02T12:27:51.030Z,973.21
2022-10-02T12:28:50.843Z,973.25